sensor_id;sensor_type;location;lat;lon;timestamp;P1;durP1;ratioP1;P2;durP2;ratioP2
80201;SDS011;69521;54.454;9.928;2024-03-23T00:53:47;19.33;;;2.55;;
80201;SDS011;69521;54.454;9.928;2024-03-23T00:56:12;13.18;;;2.47;;
80201;SDS011;69521;54.454;9.928;2024-03-23T00:58:37;25.77;;;2.33;;
80201;SDS011;69521;54.454;9.928;2024-03-23T01:01:03;14.80;;;1.52;;
80201;SDS011;69521;54.454;9.928;2024-03-23T01:03:29;16.17;;;2.15;;
80201;SDS011;69521;54.454;9.928;2024-03-23T01:05:58;19.70;;;2.88;;
80201;SDS011;69521;54.454;9.928;2024-03-23T01:10:56;15.93;;;2.00;;
80201;SDS011;69521;54.454;9.928;2024-03-23T01:13:22;13.88;;;1.70;;
80201;SDS011;69521;54.454;9.928;2024-03-23T01:15:48;12.55;;;1.58;;
80201;SDS011;69521;54.454;9.928;2024-03-23T01:18:14;17.25;;;2.45;;
80201;SDS011;69521;54.454;9.928;2024-03-23T01:20:39;17.23;;;2.60;;
80201;SDS011;69521;54.454;9.928;2024-03-23T01:23:04;12.02;;;1.80;;
80201;SDS011;69521;54.454;9.928;2024-03-23T01:25:30;12.57;;;1.83;;
80201;SDS011;69521;54.454;9.928;2024-03-23T01:27:55;11.80;;;2.90;;
80201;SDS011;69521;54.454;9.928;2024-03-23T01:30:20;14.40;;;1.93;;
80201;SDS011;69521;54.454;9.928;2024-03-23T01:32:46;17.63;;;1.93;;
80201;SDS011;69521;54.454;9.928;2024-03-23T01:35:12;14.05;;;2.33;;
80201;SDS011;69521;54.454;9.928;2024-03-23T01:37:37;9.77;;;1.50;;
80201;SDS011;69521;54.454;9.928;2024-03-23T01:40:03;15.63;;;1.70;;
80201;SDS011;69521;54.454;9.928;2024-03-23T01:42:29;24.25;;;3.00;;
80201;SDS011;69521;54.454;9.928;2024-03-23T01:44:54;14.00;;;1.80;;
80201;SDS011;69521;54.454;9.928;2024-03-23T01:47:19;10.35;;;2.15;;
80201;SDS011;69521;54.454;9.928;2024-03-23T01:49:45;10.50;;;1.67;;
80201;SDS011;69521;54.454;9.928;2024-03-23T01:52:10;20.63;;;2.25;;
80201;SDS011;69521;54.454;9.928;2024-03-23T01:54:36;10.90;;;1.75;;
80201;SDS011;69521;54.454;9.928;2024-03-23T01:57:02;10.02;;;1.52;;
80201;SDS011;69521;54.454;9.928;2024-03-23T01:59:27;10.00;;;2.65;;
80201;SDS011;69521;54.454;9.928;2024-03-23T02:01:52;9.57;;;1.63;;
80201;SDS011;69521;54.454;9.928;2024-03-23T02:04:18;9.23;;;1.73;;
80201;SDS011;69521;54.454;9.928;2024-03-23T02:06:43;17.20;;;2.60;;
80201;SDS011;69521;54.454;9.928;2024-03-23T02:09:08;15.25;;;1.92;;
80201;SDS011;69521;54.454;9.928;2024-03-23T02:11:34;12.90;;;2.47;;
80201;SDS011;69521;54.454;9.928;2024-03-23T02:13:59;18.23;;;1.90;;
80201;SDS011;69521;54.454;9.928;2024-03-23T02:16:25;9.98;;;2.40;;
80201;SDS011;69521;54.454;9.928;2024-03-23T02:18:50;12.77;;;2.13;;
80201;SDS011;69521;54.454;9.928;2024-03-23T02:21:15;19.50;;;2.90;;
80201;SDS011;69521;54.454;9.928;2024-03-23T02:23:41;11.55;;;1.80;;
80201;SDS011;69521;54.454;9.928;2024-03-23T02:26:06;16.60;;;2.80;;
80201;SDS011;69521;54.454;9.928;2024-03-23T02:28:31;15.95;;;2.70;;
80201;SDS011;69521;54.454;9.928;2024-03-23T02:30:57;11.27;;;1.90;;
80201;SDS011;69521;54.454;9.928;2024-03-23T02:33:23;14.38;;;2.08;;
80201;SDS011;69521;54.454;9.928;2024-03-23T02:35:48;17.05;;;2.80;;
80201;SDS011;69521;54.454;9.928;2024-03-23T02:38:14;10.40;;;1.88;;
80201;SDS011;69521;54.454;9.928;2024-03-23T02:40:39;13.52;;;2.15;;
80201;SDS011;69521;54.454;9.928;2024-03-23T02:43:05;15.23;;;2.35;;
80201;SDS011;69521;54.454;9.928;2024-03-23T02:45:30;12.67;;;2.27;;
80201;SDS011;69521;54.454;9.928;2024-03-23T02:47:56;9.82;;;1.83;;
80201;SDS011;69521;54.454;9.928;2024-03-23T02:50:21;18.45;;;1.98;;
80201;SDS011;69521;54.454;9.928;2024-03-23T02:52:47;15.63;;;2.15;;
80201;SDS011;69521;54.454;9.928;2024-03-23T02:55:13;14.32;;;1.92;;
80201;SDS011;69521;54.454;9.928;2024-03-23T02:57:39;13.45;;;1.98;;
80201;SDS011;69521;54.454;9.928;2024-03-23T03:00:04;18.77;;;2.60;;
80201;SDS011;69521;54.454;9.928;2024-03-23T03:02:31;11.68;;;1.85;;
80201;SDS011;69521;54.454;9.928;2024-03-23T03:04:56;16.95;;;1.88;;
80201;SDS011;69521;54.454;9.928;2024-03-23T03:07:22;16.40;;;2.80;;
80201;SDS011;69521;54.454;9.928;2024-03-23T03:09:47;17.83;;;2.25;;
80201;SDS011;69521;54.454;9.928;2024-03-23T03:12:12;18.73;;;2.47;;
80201;SDS011;69521;54.454;9.928;2024-03-23T03:14:38;10.15;;;1.73;;
80201;SDS011;69521;54.454;9.928;2024-03-23T03:17:04;14.95;;;2.13;;
80201;SDS011;69521;54.454;9.928;2024-03-23T03:19:29;27.65;;;2.83;;
80201;SDS011;69521;54.454;9.928;2024-03-23T03:21:55;17.23;;;1.67;;
80201;SDS011;69521;54.454;9.928;2024-03-23T03:24:20;17.83;;;2.55;;
80201;SDS011;69521;54.454;9.928;2024-03-23T03:26:46;15.57;;;2.15;;
80201;SDS011;69521;54.454;9.928;2024-03-23T03:29:11;13.02;;;1.67;;
80201;SDS011;69521;54.454;9.928;2024-03-23T03:31:37;15.33;;;3.03;;
80201;SDS011;69521;54.454;9.928;2024-03-23T03:34:03;20.73;;;2.92;;
80201;SDS011;69521;54.454;9.928;2024-03-23T03:36:29;17.20;;;2.47;;
80201;SDS011;69521;54.454;9.928;2024-03-23T03:38:54;18.10;;;2.25;;
80201;SDS011;69521;54.454;9.928;2024-03-23T03:41:19;16.80;;;2.60;;
80201;SDS011;69521;54.454;9.928;2024-03-23T03:43:45;14.40;;;2.35;;
80201;SDS011;69521;54.454;9.928;2024-03-23T03:46:10;8.90;;;1.98;;
80201;SDS011;69521;54.454;9.928;2024-03-23T03:48:36;9.52;;;1.95;;
80201;SDS011;69521;54.454;9.928;2024-03-23T03:51:02;19.08;;;2.45;;
80201;SDS011;69521;54.454;9.928;2024-03-23T03:53:27;17.13;;;2.08;;
80201;SDS011;69521;54.454;9.928;2024-03-23T03:55:53;11.65;;;1.90;;
80201;SDS011;69521;54.454;9.928;2024-03-23T03:58:18;13.90;;;2.43;;
80201;SDS011;69521;54.454;9.928;2024-03-23T04:00:44;12.10;;;1.83;;
80201;SDS011;69521;54.454;9.928;2024-03-23T04:03:09;17.45;;;1.48;;
80201;SDS011;69521;54.454;9.928;2024-03-23T04:05:34;15.17;;;2.40;;
80201;SDS011;69521;54.454;9.928;2024-03-23T04:07:59;16.30;;;2.50;;
80201;SDS011;69521;54.454;9.928;2024-03-23T04:10:25;17.42;;;2.33;;
80201;SDS011;69521;54.454;9.928;2024-03-23T04:12:51;16.85;;;2.13;;
80201;SDS011;69521;54.454;9.928;2024-03-23T04:15:17;12.57;;;2.05;;
80201;SDS011;69521;54.454;9.928;2024-03-23T04:17:42;12.33;;;1.97;;
80201;SDS011;69521;54.454;9.928;2024-03-23T04:20:08;20.02;;;2.13;;
80201;SDS011;69521;54.454;9.928;2024-03-23T04:22:36;15.23;;;2.20;;
80201;SDS011;69521;54.454;9.928;2024-03-23T04:25:04;19.02;;;2.50;;
80201;SDS011;69521;54.454;9.928;2024-03-23T04:27:34;13.35;;;2.15;;
80201;SDS011;69521;54.454;9.928;2024-03-23T04:30:00;19.90;;;2.65;;
80201;SDS011;69521;54.454;9.928;2024-03-23T04:32:26;26.30;;;3.03;;
80201;SDS011;69521;54.454;9.928;2024-03-23T04:34:52;12.85;;;2.45;;
80201;SDS011;69521;54.454;9.928;2024-03-23T04:37:17;11.07;;;2.90;;
80201;SDS011;69521;54.454;9.928;2024-03-23T04:39:43;15.75;;;2.55;;
80201;SDS011;69521;54.454;9.928;2024-03-23T04:42:08;20.25;;;2.33;;
80201;SDS011;69521;54.454;9.928;2024-03-23T04:44:33;22.20;;;2.53;;
80201;SDS011;69521;54.454;9.928;2024-03-23T04:47:00;16.58;;;3.20;;
80201;SDS011;69521;54.454;9.928;2024-03-23T04:49:25;16.13;;;2.60;;
80201;SDS011;69521;54.454;9.928;2024-03-23T04:51:51;20.07;;;3.27;;
80201;SDS011;69521;54.454;9.928;2024-03-23T04:54:16;19.20;;;2.60;;
80201;SDS011;69521;54.454;9.928;2024-03-23T04:56:41;22.73;;;3.00;;
80201;SDS011;69521;54.454;9.928;2024-03-23T04:59:07;16.48;;;2.53;;
80201;SDS011;69521;54.454;9.928;2024-03-23T05:01:32;14.70;;;2.65;;
80201;SDS011;69521;54.454;9.928;2024-03-23T05:03:58;15.63;;;2.97;;
80201;SDS011;69521;54.454;9.928;2024-03-23T05:06:23;17.08;;;3.08;;
80201;SDS011;69521;54.454;9.928;2024-03-23T05:08:49;15.98;;;2.47;;
80201;SDS011;69521;54.454;9.928;2024-03-23T05:11:15;21.00;;;2.10;;
80201;SDS011;69521;54.454;9.928;2024-03-23T05:13:40;15.93;;;2.47;;
80201;SDS011;69521;54.454;9.928;2024-03-23T05:16:06;17.40;;;2.92;;
80201;SDS011;69521;54.454;9.928;2024-03-23T05:18:32;18.35;;;2.78;;
80201;SDS011;69521;54.454;9.928;2024-03-23T05:20:57;20.80;;;4.10;;
80201;SDS011;69521;54.454;9.928;2024-03-23T05:23:24;13.00;;;2.53;;
80201;SDS011;69521;54.454;9.928;2024-03-23T05:25:50;22.30;;;5.00;;
80201;SDS011;69521;54.454;9.928;2024-03-23T05:28:16;17.17;;;3.00;;
80201;SDS011;69521;54.454;9.928;2024-03-23T05:30:42;11.10;;;2.25;;
80201;SDS011;69521;54.454;9.928;2024-03-23T05:33:07;22.33;;;3.00;;
80201;SDS011;69521;54.454;9.928;2024-03-23T05:35:33;13.57;;;2.53;;
80201;SDS011;69521;54.454;9.928;2024-03-23T05:37:58;13.32;;;2.40;;
80201;SDS011;69521;54.454;9.928;2024-03-23T05:40:25;18.38;;;2.40;;
80201;SDS011;69521;54.454;9.928;2024-03-23T05:42:51;17.33;;;3.22;;
80201;SDS011;69521;54.454;9.928;2024-03-23T05:45:20;28.33;;;3.30;;
80201;SDS011;69521;54.454;9.928;2024-03-23T05:47:47;15.40;;;3.08;;
80201;SDS011;69521;54.454;9.928;2024-03-23T05:50:13;23.55;;;3.38;;
80201;SDS011;69521;54.454;9.928;2024-03-23T05:52:38;12.23;;;2.75;;
80201;SDS011;69521;54.454;9.928;2024-03-23T05:55:04;16.63;;;2.67;;
80201;SDS011;69521;54.454;9.928;2024-03-23T05:57:33;23.25;;;2.50;;
80201;SDS011;69521;54.454;9.928;2024-03-23T05:59:58;23.93;;;3.93;;
80201;SDS011;69521;54.454;9.928;2024-03-23T06:02:23;32.63;;;5.00;;
80201;SDS011;69521;54.454;9.928;2024-03-23T06:04:49;11.43;;;3.15;;
80201;SDS011;69521;54.454;9.928;2024-03-23T06:07:14;11.60;;;2.83;;
80201;SDS011;69521;54.454;9.928;2024-03-23T06:09:40;18.15;;;2.35;;
80201;SDS011;69521;54.454;9.928;2024-03-23T06:12:06;27.60;;;4.88;;
80201;SDS011;69521;54.454;9.928;2024-03-23T06:14:31;30.48;;;4.72;;
80201;SDS011;69521;54.454;9.928;2024-03-23T06:16:58;26.35;;;6.30;;
80201;SDS011;69521;54.454;9.928;2024-03-23T06:19:23;29.65;;;5.32;;
80201;SDS011;69521;54.454;9.928;2024-03-23T06:21:48;26.70;;;4.60;;
80201;SDS011;69521;54.454;9.928;2024-03-23T06:24:14;25.50;;;5.40;;
80201;SDS011;69521;54.454;9.928;2024-03-23T06:26:39;23.53;;;5.33;;
80201;SDS011;69521;54.454;9.928;2024-03-23T06:29:04;17.20;;;4.10;;
80201;SDS011;69521;54.454;9.928;2024-03-23T06:31:30;21.63;;;5.15;;
80201;SDS011;69521;54.454;9.928;2024-03-23T06:33:56;23.95;;;4.55;;
80201;SDS011;69521;54.454;9.928;2024-03-23T06:36:21;30.03;;;6.07;;
80201;SDS011;69521;54.454;9.928;2024-03-23T06:38:46;31.52;;;5.05;;
80201;SDS011;69521;54.454;9.928;2024-03-23T06:41:12;25.33;;;4.35;;
80201;SDS011;69521;54.454;9.928;2024-03-23T06:43:37;14.50;;;3.83;;
80201;SDS011;69521;54.454;9.928;2024-03-23T06:46:02;16.35;;;3.85;;
80201;SDS011;69521;54.454;9.928;2024-03-23T06:48:29;19.67;;;4.95;;
80201;SDS011;69521;54.454;9.928;2024-03-23T06:50:55;28.90;;;3.72;;
80201;SDS011;69521;54.454;9.928;2024-03-23T06:53:21;23.13;;;4.35;;
80201;SDS011;69521;54.454;9.928;2024-03-23T06:55:49;16.92;;;3.42;;
80201;SDS011;69521;54.454;9.928;2024-03-23T06:58:16;19.73;;;4.65;;
80201;SDS011;69521;54.454;9.928;2024-03-23T07:00:42;20.85;;;3.92;;
80201;SDS011;69521;54.454;9.928;2024-03-23T07:03:07;22.10;;;4.37;;
80201;SDS011;69521;54.454;9.928;2024-03-23T07:05:32;12.32;;;3.88;;
80201;SDS011;69521;54.454;9.928;2024-03-23T07:07:58;17.90;;;4.15;;
80201;SDS011;69521;54.454;9.928;2024-03-23T07:10:23;19.63;;;4.47;;
80201;SDS011;69521;54.454;9.928;2024-03-23T07:12:48;21.35;;;6.03;;
80201;SDS011;69521;54.454;9.928;2024-03-23T07:15:14;16.80;;;3.83;;
80201;SDS011;69521;54.454;9.928;2024-03-23T07:17:39;25.27;;;5.63;;
80201;SDS011;69521;54.454;9.928;2024-03-23T07:20:04;24.00;;;5.90;;
80201;SDS011;69521;54.454;9.928;2024-03-23T07:22:30;23.92;;;6.22;;
80201;SDS011;69521;54.454;9.928;2024-03-23T07:24:56;20.77;;;4.80;;
80201;SDS011;69521;54.454;9.928;2024-03-23T07:27:22;17.38;;;4.72;;
80201;SDS011;69521;54.454;9.928;2024-03-23T07:29:48;24.25;;;4.82;;
80201;SDS011;69521;54.454;9.928;2024-03-23T07:32:14;17.80;;;4.20;;
80201;SDS011;69521;54.454;9.928;2024-03-23T07:34:39;16.02;;;4.35;;
80201;SDS011;69521;54.454;9.928;2024-03-23T07:37:04;18.60;;;4.88;;
80201;SDS011;69521;54.454;9.928;2024-03-23T07:39:30;17.63;;;4.45;;
80201;SDS011;69521;54.454;9.928;2024-03-23T07:41:58;14.88;;;3.80;;
80201;SDS011;69521;54.454;9.928;2024-03-23T07:44:23;20.08;;;4.63;;
80201;SDS011;69521;54.454;9.928;2024-03-23T07:46:48;17.40;;;4.23;;
80201;SDS011;69521;54.454;9.928;2024-03-23T07:49:13;17.03;;;4.27;;
80201;SDS011;69521;54.454;9.928;2024-03-23T07:51:39;19.17;;;3.67;;
80201;SDS011;69521;54.454;9.928;2024-03-23T07:54:05;22.23;;;4.55;;
80201;SDS011;69521;54.454;9.928;2024-03-23T07:56:30;19.33;;;3.80;;
80201;SDS011;69521;54.454;9.928;2024-03-23T07:58:57;17.77;;;3.70;;
80201;SDS011;69521;54.454;9.928;2024-03-23T08:01:22;18.73;;;4.30;;
80201;SDS011;69521;54.454;9.928;2024-03-23T08:03:49;13.20;;;5.20;;
80201;SDS011;69521;54.454;9.928;2024-03-23T08:06:15;15.75;;;4.55;;
80201;SDS011;69521;54.454;9.928;2024-03-23T08:08:43;17.75;;;3.35;;
80201;SDS011;69521;54.454;9.928;2024-03-23T08:11:10;16.08;;;3.63;;
80201;SDS011;69521;54.454;9.928;2024-03-23T08:13:36;19.13;;;3.67;;
80201;SDS011;69521;54.454;9.928;2024-03-23T08:16:03;23.10;;;4.40;;
80201;SDS011;69521;54.454;9.928;2024-03-23T08:18:29;13.05;;;3.13;;
80201;SDS011;69521;54.454;9.928;2024-03-23T08:20:58;12.15;;;2.45;;
80201;SDS011;69521;54.454;9.928;2024-03-23T08:23:25;11.65;;;2.53;;
80201;SDS011;69521;54.454;9.928;2024-03-23T08:25:51;5.18;;;1.00;;
80201;SDS011;69521;54.454;9.928;2024-03-23T08:28:17;3.25;;;0.98;;
80201;SDS011;69521;54.454;9.928;2024-03-23T08:30:42;3.97;;;0.60;;
80201;SDS011;69521;54.454;9.928;2024-03-23T08:33:08;2.75;;;0.30;;
80201;SDS011;69521;54.454;9.928;2024-03-23T08:35:33;2.83;;;0.40;;
80201;SDS011;69521;54.454;9.928;2024-03-23T08:37:59;0.35;;;0.10;;
80201;SDS011;69521;54.454;9.928;2024-03-23T08:40:25;1.35;;;0.25;;
80201;SDS011;69521;54.454;9.928;2024-03-23T08:42:50;4.57;;;0.20;;
80201;SDS011;69521;54.454;9.928;2024-03-23T08:45:15;0.50;;;0.20;;
80201;SDS011;69521;54.454;9.928;2024-03-23T08:47:41;1.10;;;0.20;;
80201;SDS011;69521;54.454;9.928;2024-03-23T08:50:06;3.28;;;0.57;;
80201;SDS011;69521;54.454;9.928;2024-03-23T08:52:32;1.45;;;0.60;;
80201;SDS011;69521;54.454;9.928;2024-03-23T08:54:57;6.63;;;0.90;;
80201;SDS011;69521;54.454;9.928;2024-03-23T08:57:23;2.70;;;0.80;;
80201;SDS011;69521;54.454;9.928;2024-03-23T08:59:48;4.80;;;0.95;;
80201;SDS011;69521;54.454;9.928;2024-03-23T09:02:14;6.38;;;0.85;;
80201;SDS011;69521;54.454;9.928;2024-03-23T09:04:40;5.63;;;0.63;;
80201;SDS011;69521;54.454;9.928;2024-03-23T09:07:05;3.30;;;1.10;;
80201;SDS011;69521;54.454;9.928;2024-03-23T09:09:30;8.10;;;1.50;;
80201;SDS011;69521;54.454;9.928;2024-03-23T09:11:55;7.23;;;1.40;;
80201;SDS011;69521;54.454;9.928;2024-03-23T09:14:21;6.60;;;0.75;;
80201;SDS011;69521;54.454;9.928;2024-03-23T09:16:49;4.10;;;1.23;;
80201;SDS011;69521;54.454;9.928;2024-03-23T09:19:16;6.50;;;1.25;;
80201;SDS011;69521;54.454;9.928;2024-03-23T09:21:42;8.35;;;1.15;;
80201;SDS011;69521;54.454;9.928;2024-03-23T09:24:07;7.80;;;1.57;;
80201;SDS011;69521;54.454;9.928;2024-03-23T09:26:32;6.55;;;1.20;;
80201;SDS011;69521;54.454;9.928;2024-03-23T09:28:58;12.60;;;1.25;;
80201;SDS011;69521;54.454;9.928;2024-03-23T09:31:23;9.50;;;1.20;;
80201;SDS011;69521;54.454;9.928;2024-03-23T09:33:48;10.03;;;1.60;;
80201;SDS011;69521;54.454;9.928;2024-03-23T09:36:14;7.95;;;1.40;;
80201;SDS011;69521;54.454;9.928;2024-03-23T09:38:40;7.43;;;1.23;;
80201;SDS011;69521;54.454;9.928;2024-03-23T09:41:09;9.23;;;1.50;;
80201;SDS011;69521;54.454;9.928;2024-03-23T09:43:35;5.82;;;1.40;;
80201;SDS011;69521;54.454;9.928;2024-03-23T09:46:01;5.22;;;1.48;;
80201;SDS011;69521;54.454;9.928;2024-03-23T09:48:27;7.50;;;1.20;;
80201;SDS011;69521;54.454;9.928;2024-03-23T09:50:53;5.40;;;1.13;;
80201;SDS011;69521;54.454;9.928;2024-03-23T09:53:18;13.35;;;1.83;;
80201;SDS011;69521;54.454;9.928;2024-03-23T09:55:44;9.45;;;1.38;;
80201;SDS011;69521;54.454;9.928;2024-03-23T09:58:13;12.02;;;2.28;;
80201;SDS011;69521;54.454;9.928;2024-03-23T10:00:40;10.68;;;2.33;;
80201;SDS011;69521;54.454;9.928;2024-03-23T10:03:05;7.20;;;0.88;;
80201;SDS011;69521;54.454;9.928;2024-03-23T10:05:32;3.92;;;0.80;;
80201;SDS011;69521;54.454;9.928;2024-03-23T10:08:16;2.60;;;0.88;;
80201;SDS011;69521;54.454;9.928;2024-03-23T10:10:43;5.82;;;1.10;;
80201;SDS011;69521;54.454;9.928;2024-03-23T10:13:09;4.78;;;1.00;;
80201;SDS011;69521;54.454;9.928;2024-03-23T10:15:36;4.35;;;0.70;;
80201;SDS011;69521;54.454;9.928;2024-03-23T10:18:18;10.38;;;1.00;;
80201;SDS011;69521;54.454;9.928;2024-03-23T10:20:47;6.50;;;1.00;;
80201;SDS011;69521;54.454;9.928;2024-03-23T10:23:16;5.07;;;1.10;;
80201;SDS011;69521;54.454;9.928;2024-03-23T10:25:42;5.20;;;0.73;;
80201;SDS011;69521;54.454;9.928;2024-03-23T10:28:08;4.50;;;0.80;;
80201;SDS011;69521;54.454;9.928;2024-03-23T10:30:34;3.20;;;1.00;;
80201;SDS011;69521;54.454;9.928;2024-03-23T10:33:06;6.30;;;0.90;;
80201;SDS011;69521;54.454;9.928;2024-03-23T10:38:02;3.78;;;0.50;;
80201;SDS011;69521;54.454;9.928;2024-03-23T10:40:29;3.42;;;0.68;;
80201;SDS011;69521;54.454;9.928;2024-03-23T10:42:56;4.32;;;0.82;;
80201;SDS011;69521;54.454;9.928;2024-03-23T10:45:23;5.35;;;1.23;;
80201;SDS011;69521;54.454;9.928;2024-03-23T10:47:48;11.35;;;1.00;;
80201;SDS011;69521;54.454;9.928;2024-03-23T10:50:14;4.57;;;1.05;;
80201;SDS011;69521;54.454;9.928;2024-03-23T10:52:39;6.83;;;0.93;;
80201;SDS011;69521;54.454;9.928;2024-03-23T10:55:10;5.03;;;0.88;;
80201;SDS011;69521;54.454;9.928;2024-03-23T10:57:44;3.00;;;0.90;;
80201;SDS011;69521;54.454;9.928;2024-03-23T11:00:13;6.28;;;1.55;;
80201;SDS011;69521;54.454;9.928;2024-03-23T11:02:39;3.85;;;0.90;;
80201;SDS011;69521;54.454;9.928;2024-03-23T11:07:52;8.98;;;1.08;;
80201;SDS011;69521;54.454;9.928;2024-03-23T11:10:25;3.78;;;0.80;;
80201;SDS011;69521;54.454;9.928;2024-03-23T11:12:53;4.97;;;0.50;;
80201;SDS011;69521;54.454;9.928;2024-03-23T11:15:19;6.95;;;0.60;;
80201;SDS011;69521;54.454;9.928;2024-03-23T11:20:46;4.50;;;0.77;;
80201;SDS011;69521;54.454;9.928;2024-03-23T11:23:26;6.05;;;1.05;;
80201;SDS011;69521;54.454;9.928;2024-03-23T11:25:52;0.65;;;0.30;;
80201;SDS011;69521;54.454;9.928;2024-03-23T11:28:17;5.60;;;0.80;;
80201;SDS011;69521;54.454;9.928;2024-03-23T11:30:43;5.15;;;0.70;;
80201;SDS011;69521;54.454;9.928;2024-03-23T11:33:08;6.13;;;0.93;;
80201;SDS011;69521;54.454;9.928;2024-03-23T11:35:36;5.05;;;1.02;;
80201;SDS011;69521;54.454;9.928;2024-03-23T11:38:03;7.63;;;1.02;;
80201;SDS011;69521;54.454;9.928;2024-03-23T11:40:35;5.72;;;1.20;;
80201;SDS011;69521;54.454;9.928;2024-03-23T11:43:02;9.95;;;1.17;;
80201;SDS011;69521;54.454;9.928;2024-03-23T11:45:29;4.45;;;0.63;;
80201;SDS011;69521;54.454;9.928;2024-03-23T11:50:29;6.10;;;0.80;;
80201;SDS011;69521;54.454;9.928;2024-03-23T11:53:07;5.75;;;1.08;;
80201;SDS011;69521;54.454;9.928;2024-03-23T11:55:43;8.10;;;1.13;;
80201;SDS011;69521;54.454;9.928;2024-03-23T11:58:13;5.85;;;0.70;;
80201;SDS011;69521;54.454;9.928;2024-03-23T12:00:39;5.03;;;0.80;;
80201;SDS011;69521;54.454;9.928;2024-03-23T12:03:05;4.03;;;0.75;;
80201;SDS011;69521;54.454;9.928;2024-03-23T12:05:31;3.47;;;0.70;;
80201;SDS011;69521;54.454;9.928;2024-03-23T12:10:46;7.20;;;1.60;;
80201;SDS011;69521;54.454;9.928;2024-03-23T12:13:17;4.28;;;0.90;;
80201;SDS011;69521;54.454;9.928;2024-03-23T12:15:44;7.70;;;1.10;;
80201;SDS011;69521;54.454;9.928;2024-03-23T12:18:10;10.85;;;1.05;;
80201;SDS011;69521;54.454;9.928;2024-03-23T12:20:35;6.88;;;1.17;;
80201;SDS011;69521;54.454;9.928;2024-03-23T12:23:06;4.47;;;0.60;;
80201;SDS011;69521;54.454;9.928;2024-03-23T12:25:38;1.90;;;0.75;;
80201;SDS011;69521;54.454;9.928;2024-03-23T12:28:04;1.60;;;0.28;;
80201;SDS011;69521;54.454;9.928;2024-03-23T12:30:31;3.45;;;0.57;;
80201;SDS011;69521;54.454;9.928;2024-03-23T12:35:25;3.90;;;0.80;;
80201;SDS011;69521;54.454;9.928;2024-03-23T12:37:51;7.33;;;0.90;;
80201;SDS011;69521;54.454;9.928;2024-03-23T12:40:16;8.25;;;1.02;;
80201;SDS011;69521;54.454;9.928;2024-03-23T12:42:41;1.17;;;0.32;;
80201;SDS011;69521;54.454;9.928;2024-03-23T12:45:07;6.80;;;0.80;;
80201;SDS011;69521;54.454;9.928;2024-03-23T12:47:32;2.50;;;0.60;;
80201;SDS011;69521;54.454;9.928;2024-03-23T12:49:58;1.33;;;0.47;;
80201;SDS011;69521;54.454;9.928;2024-03-23T12:52:23;3.88;;;0.52;;
80201;SDS011;69521;54.454;9.928;2024-03-23T12:54:53;3.85;;;0.65;;
80201;SDS011;69521;54.454;9.928;2024-03-23T12:57:25;7.47;;;1.08;;
80201;SDS011;69521;54.454;9.928;2024-03-23T12:59:51;4.03;;;0.93;;
80201;SDS011;69521;54.454;9.928;2024-03-23T13:02:20;5.13;;;0.82;;
80201;SDS011;69521;54.454;9.928;2024-03-23T13:04:46;3.70;;;0.98;;
80201;SDS011;69521;54.454;9.928;2024-03-23T13:07:14;9.02;;;1.08;;
80201;SDS011;69521;54.454;9.928;2024-03-23T13:09:40;5.70;;;0.70;;
80201;SDS011;69521;54.454;9.928;2024-03-23T13:12:05;6.70;;;0.70;;
80201;SDS011;69521;54.454;9.928;2024-03-23T13:14:31;5.53;;;1.20;;
80201;SDS011;69521;54.454;9.928;2024-03-23T13:16:56;3.25;;;0.55;;
80201;SDS011;69521;54.454;9.928;2024-03-23T13:19:21;11.30;;;1.50;;
80201;SDS011;69521;54.454;9.928;2024-03-23T13:21:51;5.28;;;0.73;;
80201;SDS011;69521;54.454;9.928;2024-03-23T13:24:17;13.25;;;1.27;;
80201;SDS011;69521;54.454;9.928;2024-03-23T13:26:42;2.17;;;0.30;;
80201;SDS011;69521;54.454;9.928;2024-03-23T13:29:07;0.83;;;0.20;;
80201;SDS011;69521;54.454;9.928;2024-03-23T13:31:33;0.73;;;0.30;;
80201;SDS011;69521;54.454;9.928;2024-03-23T13:33:59;1.52;;;0.30;;
80201;SDS011;69521;54.454;9.928;2024-03-23T13:36:24;6.18;;;1.13;;
80201;SDS011;69521;54.454;9.928;2024-03-23T13:38:50;7.03;;;1.05;;
80201;SDS011;69521;54.454;9.928;2024-03-23T13:41:16;3.97;;;0.63;;
80201;SDS011;69521;54.454;9.928;2024-03-23T13:43:41;1.33;;;0.30;;
80201;SDS011;69521;54.454;9.928;2024-03-23T13:46:07;6.00;;;1.63;;
80201;SDS011;69521;54.454;9.928;2024-03-23T13:48:32;7.75;;;2.05;;
80201;SDS011;69521;54.454;9.928;2024-03-23T13:51:02;4.53;;;0.85;;
80201;SDS011;69521;54.454;9.928;2024-03-23T13:53:28;8.63;;;1.25;;
80201;SDS011;69521;54.454;9.928;2024-03-23T13:55:53;3.30;;;0.65;;
80201;SDS011;69521;54.454;9.928;2024-03-23T13:58:19;4.35;;;1.15;;
80201;SDS011;69521;54.454;9.928;2024-03-23T14:00:45;5.18;;;0.70;;
80201;SDS011;69521;54.454;9.928;2024-03-23T14:03:11;5.47;;;1.23;;
80201;SDS011;69521;54.454;9.928;2024-03-23T14:05:37;3.63;;;0.45;;
80201;SDS011;69521;54.454;9.928;2024-03-23T14:08:04;7.03;;;1.13;;
80201;SDS011;69521;54.454;9.928;2024-03-23T14:10:30;2.75;;;0.82;;
80201;SDS011;69521;54.454;9.928;2024-03-23T14:12:56;4.55;;;1.00;;
80201;SDS011;69521;54.454;9.928;2024-03-23T14:15:21;7.57;;;0.97;;
80201;SDS011;69521;54.454;9.928;2024-03-23T14:17:46;9.43;;;1.45;;
80201;SDS011;69521;54.454;9.928;2024-03-23T14:20:12;6.40;;;1.10;;
80201;SDS011;69521;54.454;9.928;2024-03-23T14:22:38;11.13;;;1.20;;
80201;SDS011;69521;54.454;9.928;2024-03-23T14:25:06;7.85;;;1.17;;
80201;SDS011;69521;54.454;9.928;2024-03-23T14:27:32;3.88;;;0.65;;
80201;SDS011;69521;54.454;9.928;2024-03-23T14:29:57;2.87;;;0.37;;
80201;SDS011;69521;54.454;9.928;2024-03-23T14:32:22;4.53;;;0.63;;
80201;SDS011;69521;54.454;9.928;2024-03-23T14:34:47;5.17;;;1.07;;
80201;SDS011;69521;54.454;9.928;2024-03-23T14:37:13;3.27;;;0.80;;
80201;SDS011;69521;54.454;9.928;2024-03-23T14:39:40;13.82;;;1.45;;
80201;SDS011;69521;54.454;9.928;2024-03-23T14:42:06;6.65;;;0.80;;
80201;SDS011;69521;54.454;9.928;2024-03-23T14:44:33;4.15;;;0.68;;
80201;SDS011;69521;54.454;9.928;2024-03-23T14:46:59;8.02;;;1.08;;
80201;SDS011;69521;54.454;9.928;2024-03-23T14:49:24;8.23;;;1.55;;
80201;SDS011;69521;54.454;9.928;2024-03-23T14:51:49;7.17;;;0.80;;
80201;SDS011;69521;54.454;9.928;2024-03-23T14:54:15;9.95;;;0.85;;
80201;SDS011;69521;54.454;9.928;2024-03-23T14:56:40;9.38;;;0.77;;
80201;SDS011;69521;54.454;9.928;2024-03-23T14:59:06;2.25;;;0.50;;
80201;SDS011;69521;54.454;9.928;2024-03-23T15:01:32;2.78;;;0.70;;
80201;SDS011;69521;54.454;9.928;2024-03-23T15:03:57;2.45;;;0.73;;
80201;SDS011;69521;54.454;9.928;2024-03-23T15:06:23;7.70;;;0.85;;
80201;SDS011;69521;54.454;9.928;2024-03-23T15:08:48;10.20;;;1.20;;
80201;SDS011;69521;54.454;9.928;2024-03-23T15:11:14;7.28;;;1.00;;
80201;SDS011;69521;54.454;9.928;2024-03-23T15:13:39;13.37;;;1.57;;
80201;SDS011;69521;54.454;9.928;2024-03-23T15:16:04;7.20;;;0.80;;
80201;SDS011;69521;54.454;9.928;2024-03-23T15:18:31;5.15;;;0.80;;
80201;SDS011;69521;54.454;9.928;2024-03-23T15:20:58;8.35;;;0.85;;
80201;SDS011;69521;54.454;9.928;2024-03-23T15:23:27;7.82;;;1.08;;
80201;SDS011;69521;54.454;9.928;2024-03-23T15:25:54;4.90;;;0.90;;
80201;SDS011;69521;54.454;9.928;2024-03-23T15:28:22;6.80;;;1.20;;
80201;SDS011;69521;54.454;9.928;2024-03-23T15:30:48;8.75;;;1.10;;
80201;SDS011;69521;54.454;9.928;2024-03-23T15:33:14;9.35;;;1.50;;
80201;SDS011;69521;54.454;9.928;2024-03-23T15:35:39;6.15;;;0.68;;
80201;SDS011;69521;54.454;9.928;2024-03-23T15:38:04;8.37;;;0.90;;
80201;SDS011;69521;54.454;9.928;2024-03-23T15:40:30;5.73;;;1.00;;
80201;SDS011;69521;54.454;9.928;2024-03-23T15:42:55;9.93;;;1.58;;
80201;SDS011;69521;54.454;9.928;2024-03-23T15:45:20;5.90;;;1.80;;